Ashaiiu, Virginia
Current Conditions -  °F | °C
As of 9:54 AM on Friday 28 Nov 2014 (Local Time) from KOFP Reporting Station
Clear Clear  
Wind Chill: 30°   Ceiling: Unl
Heat Index: 37°   Visibility: 10mi
Dew Point: 24°   Wind: 9mph
Humidity: 59%   Direction: 300°WNW
Pressure: 30.36"   Gusts: NA
Location:  37.7534°N, 77.495°W
Report Text: KOFP 281454Z AUTO 30008KT 10SM CLR 03/M04 A3036 RMK AO2 SLP281 I3000 T00281044 51017
Loading
Personal Weather Stations






























Interactive Weather Map New forecast layout! Learn more

10-Day Weather Forecast

Advertisements
Track Severe Weather on mobile